Time;durP1;ratioP1;P1;durP2;ratioP2;P2;SDS_P1;SDS_P2;PMS_P1;PMS_P2;Temp;Humidity;BMP_temperature;BMP_pressure;BME280_temperature;BME280_humidity;BME280_pressure;Samples;Min_cycle;Max_cycle;Signal;HPM_P1;HPM_P2
2023/04/17 00:01:41;;;;;;;15.02;7.95;;;;;;;9.55;100.00;101466.00;5169374;28;20492;-73
2023/04/17 00:04:11;;;;;;;15.23;8.05;;;;;;;9.56;100.00;101463.38;5171301;28;20030;-72
2023/04/17 00:06:44;;;;;;;13.30;7.22;;;;;;;9.48;100.00;101465.22;5156602;28;20041;-73
2023/04/17 00:09:15;;;;;;;15.23;8.23;;;;;;;9.43;100.00;101466.19;5167758;28;20026;-73
2023/04/17 00:11:45;;;;;;;15.13;8.45;;;;;;;9.35;100.00;101468.09;5168410;28;20400;-73
2023/04/17 00:14:15;;;;;;;18.75;7.88;;;;;;;9.28;100.00;101471.69;5165534;28;20076;-73
2023/04/17 00:16:46;;;;;;;13.30;7.93;;;;;;;9.39;100.00;101474.97;5174178;28;20026;-73
2023/04/17 00:19:16;;;;;;;15.60;7.65;;;;;;;9.22;100.00;101466.56;5164275;28;20049;-74
2023/04/17 00:21:47;;;;;;;14.85;7.78;;;;;;;9.18;100.00;101467.50;5175389;28;20021;-71
2023/04/17 00:24:17;;;;;;;15.70;8.02;;;;;;;9.20;100.00;101469.19;5173039;28;20030;-71
2023/04/17 00:26:47;;;;;;;12.80;7.50;;;;;;;9.13;100.00;101469.31;5167009;28;20538;-73
2023/04/17 00:29:18;;;;;;;16.70;8.25;;;;;;;9.17;100.00;101465.75;5153277;28;20053;-72
2023/04/17 00:31:48;;;;;;;13.48;7.55;;;;;;;9.05;100.00;101472.94;5161059;28;20045;-71
2023/04/17 00:34:18;;;;;;;14.73;8.32;;;;;;;9.02;100.00;101468.59;5167985;28;20029;-72
2023/04/17 00:36:49;;;;;;;15.25;7.75;;;;;;;9.02;100.00;101463.41;5166577;28;20026;-71
2023/04/17 00:39:19;;;;;;;15.93;8.00;;;;;;;9.00;100.00;101470.38;5167643;28;20500;-73
2023/04/17 00:41:50;;;;;;;13.93;8.05;;;;;;;9.08;100.00;101465.06;5178487;28;20022;-72
2023/04/17 00:44:20;;;;;;;15.98;8.15;;;;;;;9.06;100.00;101466.81;5162954;28;20076;-73
2023/04/17 00:46:50;;;;;;;14.60;8.20;;;;;;;9.01;100.00;101469.50;5148561;28;20118;-72
2023/04/17 00:49:21;;;;;;;18.42;8.05;;;;;;;9.03;100.00;101466.88;5163016;28;20030;-72
2023/04/17 00:51:52;;;;;;;15.65;7.40;;;;;;;8.94;100.00;101467.00;5172713;28;20519;-72
2023/04/17 00:54:23;;;;;;;14.48;8.00;;;;;;;8.89;100.00;101463.59;5166929;28;20046;-72
2023/04/17 00:56:55;;;;;;;12.13;7.45;;;;;;;8.88;100.00;101472.31;5167530;28;20113;-71
2023/04/17 00:59:27;;;;;;;15.65;7.45;;;;;;;8.75;100.00;101474.22;5163392;28;20038;-73
2023/04/17 01:01:58;;;;;;;17.65;8.85;;;;;;;8.74;100.00;101471.63;5171170;28;20518;-72
2023/04/17 01:04:28;;;;;;;14.48;8.40;;;;;;;8.76;100.00;101467.25;5152251;28;20109;-73
2023/04/17 01:06:59;;;;;;;16.00;8.13;;;;;;;8.68;100.00;101462.16;5152463;28;20034;-73
2023/04/17 01:09:30;;;;;;;16.02;8.55;;;;;;;8.75;100.00;101458.56;5171806;28;20404;-74
2023/04/17 01:12:20;;;;;;;16.35;7.90;;;;;;;8.74;100.00;101469.03;5169930;28;20392;-72
2023/04/17 01:14:52;;;;;;;18.90;8.45;;;;;;;8.69;100.00;101469.09;5164153;28;20022;-72
2023/04/17 01:17:26;;;;;;;18.92;8.65;;;;;;;8.56;100.00;101472.72;5159879;23;20097;-71
2023/04/17 01:19:57;;;;;;;16.85;8.10;;;;;;;8.63;100.00;101474.41;5167692;28;20033;-71
2023/04/17 01:22:27;;;;;;;18.08;8.40;;;;;;;8.57;100.00;101481.44;5150178;28;20038;-74
2023/04/17 01:24:57;;;;;;;13.98;8.10;;;;;;;8.56;100.00;101483.16;5166715;28;20507;-72
2023/04/17 01:27:28;;;;;;;15.57;8.60;;;;;;;8.59;100.00;101477.91;5149269;28;20520;-72
2023/04/17 01:29:58;;;;;;;15.20;8.93;;;;;;;8.56;100.00;101482.31;5170330;28;20056;-72
2023/04/17 01:32:28;;;;;;;16.25;8.77;;;;;;;8.53;100.00;101483.19;5168688;28;20049;-73
2023/04/17 01:34:59;;;;;;;13.35;8.30;;;;;;;8.44;100.00;101480.72;5151225;28;20180;-73
2023/04/17 01:37:29;;;;;;;15.52;8.82;;;;;;;8.51;100.00;101490.16;5146085;28;20054;-75
2023/04/17 01:39:59;;;;;;;14.45;8.40;;;;;;;8.69;100.00;101484.72;5148425;28;20112;-73
2023/04/17 01:42:29;;;;;;;15.50;8.65;;;;;;;8.58;100.00;101491.81;5149508;28;20057;-73
2023/04/17 01:45:00;;;;;;;16.52;8.27;;;;;;;8.64;100.00;101489.16;5170096;28;20037;-72
2023/04/17 01:47:30;;;;;;;19.30;9.40;;;;;;;8.61;100.00;101489.19;5166099;28;20041;-73
2023/04/17 01:50:02;;;;;;;16.80;8.35;;;;;;;8.54;100.00;101492.72;5167468;28;20112;-74
2023/04/17 01:52:32;;;;;;;15.77;8.52;;;;;;;8.55;100.00;101498.81;5151543;28;20112;-72
2023/04/17 01:55:03;;;;;;;16.70;8.95;;;;;;;8.47;100.00;101493.72;5165198;28;20161;-72
2023/04/17 01:57:33;;;;;;;14.95;8.43;;;;;;;8.47;100.00;101498.03;5164374;28;20026;-71
2023/04/17 02:00:06;;;;;;;16.20;8.55;;;;;;;8.46;100.00;101496.31;5164173;28;20037;-73
2023/04/17 02:02:37;;;;;;;14.95;9.38;;;;;;;8.47;100.00;101496.31;5165806;28;20033;-74
2023/04/17 02:05:07;;;;;;;15.73;8.60;;;;;;;8.34;100.00;101494.72;5163856;28;20371;-74
2023/04/17 02:07:37;;;;;;;18.15;8.82;;;;;;;8.33;100.00;101506.03;5166701;28;20046;-73
2023/04/17 02:10:08;;;;;;;16.10;8.65;;;;;;;8.36;100.00;101499.94;5167688;28;20189;-72
2023/04/17 02:12:38;;;;;;;14.95;8.82;;;;;;;8.50;100.00;101504.09;5166921;28;20041;-73
2023/04/17 02:15:09;;;;;;;17.08;8.65;;;;;;;8.43;100.00;101498.97;5167481;28;20033;-72
2023/04/17 02:17:39;;;;;;;15.15;8.27;;;;;;;8.28;100.00;101497.41;5161518;28;20083;-74
2023/04/17 02:20:10;;;;;;;17.90;8.30;;;;;;;8.33;100.00;101495.63;5165205;28;20064;-75
2023/04/17 02:22:42;;;;;;;13.65;8.32;;;;;;;8.40;100.00;101502.47;5168613;28;20123;-74
2023/04/17 02:25:12;;;;;;;13.50;7.47;;;;;;;8.49;100.00;101491.94;5163431;28;20254;-70
2023/04/17 02:27:42;;;;;;;14.13;7.85;;;;;;;8.32;100.00;101496.50;5161669;28;20081;-74
2023/04/17 02:30:13;;;;;;;13.98;8.07;;;;;;;8.31;100.00;101494.78;5162806;28;20026;-70
2023/04/17 02:32:44;;;;;;;16.75;8.25;;;;;;;8.28;100.00;101496.53;5170223;28;20014;-73
2023/04/17 02:35:14;;;;;;;18.90;8.40;;;;;;;8.32;100.00;101493.00;5166387;28;20022;-70
2023/04/17 02:37:44;;;;;;;16.80;8.80;;;;;;;8.39;100.00;101490.31;5162314;28;20056;-73
2023/04/17 02:40:15;;;;;;;16.45;7.95;;;;;;;8.29;100.00;101499.13;5166911;28;20496;-75
2023/04/17 02:42:45;;;;;;;12.77;7.95;;;;;;;8.31;100.00;101491.28;5166172;28;20351;-74
2023/04/17 02:45:15;;;;;;;14.70;7.88;;;;;;;8.25;100.00;101502.63;5166156;28;20022;-73
2023/04/17 02:47:46;;;;;;;13.48;8.13;;;;;;;8.28;100.00;101494.81;5161588;28;20472;-74
2023/04/17 02:50:17;;;;;;;13.48;7.75;;;;;;;8.29;100.00;101493.94;5165864;28;20035;-72
2023/04/17 02:52:47;;;;;;;16.60;8.45;;;;;;;8.18;100.00;101500.16;5169978;28;20018;-72
2023/04/17 02:55:18;;;;;;;18.30;7.85;;;;;;;8.23;100.00;101501.78;5147743;28;20018;-72
2023/04/17 02:57:48;;;;;;;14.95;7.85;;;;;;;8.33;100.00;101495.63;5165143;28;20029;-73
2023/04/17 03:00:19;;;;;;;16.45;7.88;;;;;;;8.28;100.00;101497.41;5141950;28;20395;-73
2023/04/17 03:02:49;;;;;;;15.88;8.35;;;;;;;8.23;100.00;101499.19;5165538;28;20061;-70
2023/04/17 03:05:22;;;;;;;14.30;8.07;;;;;;;8.13;100.00;101497.56;5165560;28;20081;-72
2023/04/17 03:07:52;;;;;;;14.55;7.40;;;;;;;8.15;100.00;101501.00;5149195;28;20021;-75
2023/04/17 03:10:22;;;;;;;14.93;7.90;;;;;;;8.22;100.00;101502.66;5160409;28;20443;-72
2023/04/17 03:12:53;;;;;;;16.60;8.80;;;;;;;8.05;100.00;101504.56;5166785;28;20029;-74
2023/04/17 03:15:24;;;;;;;15.90;8.60;;;;;;;8.10;100.00;101502.78;5166001;28;20026;-73
2023/04/17 03:17:54;;;;;;;16.67;8.93;;;;;;;8.10;100.00;101496.72;5152825;28;20022;-73
2023/04/17 03:20:24;;;;;;;15.80;8.48;;;;;;;8.10;100.00;101502.78;5148620;28;20029;-72
2023/04/17 03:22:55;;;;;;;18.73;8.07;;;;;;;8.09;100.00;101506.28;5165144;28;20026;-72
2023/04/17 03:25:25;;;;;;;16.02;8.55;;;;;;;8.06;100.00;101510.66;5170163;28;20092;-74
2023/04/17 03:27:56;;;;;;;18.38;8.52;;;;;;;8.07;100.00;101525.38;5170243;28;20117;-73
2023/04/17 03:30:26;;;;;;;15.45;8.57;;;;;;;8.23;100.00;101521.78;5169694;28;20486;-73
2023/04/17 03:32:56;;;;;;;13.75;7.82;;;;;;;8.11;100.00;101516.66;5170387;28;20022;-72
2023/04/17 03:35:27;;;;;;;15.70;7.82;;;;;;;8.06;100.00;101516.69;5153754;28;20018;-74
2023/04/17 03:37:57;;;;;;;18.52;9.15;;;;;;;8.03;100.00;101527.16;5160602;28;20472;-74
2023/04/17 03:40:27;;;;;;;15.63;8.57;;;;;;;8.01;100.00;101520.25;5161096;28;20742;-73
2023/04/17 03:42:58;;;;;;;14.45;7.75;;;;;;;8.07;100.00;101523.63;5166451;28;20465;-72
2023/04/17 03:45:28;;;;;;;16.30;8.20;;;;;;;8.10;100.00;101528.84;5161236;28;20022;-73
2023/04/17 03:47:58;;;;;;;14.68;7.82;;;;;;;8.17;100.00;101535.69;5160748;28;20029;-73
2023/04/17 03:50:29;;;;;;;16.58;8.77;;;;;;;8.05;100.00;101535.81;5161271;28;20391;-72
2023/04/17 03:52:59;;;;;;;12.75;7.72;;;;;;;8.05;100.00;101535.81;5161595;28;20045;-75
2023/04/17 03:55:29;;;;;;;15.48;8.75;;;;;;;7.99;100.00;101535.88;5164814;28;20210;-74
2023/04/17 03:58:00;;;;;;;13.05;7.65;;;;;;;7.95;100.00;101534.19;5160764;28;20297;-72
2023/04/17 04:00:30;;;;;;;17.38;8.27;;;;;;;7.93;100.00;101541.16;5161689;28;20030;-72
2023/04/17 04:03:00;;;;;;;14.23;7.97;;;;;;;7.94;100.00;101542.88;5162103;28;20026;-72
2023/04/17 04:05:31;;;;;;;14.38;7.85;;;;;;;8.04;100.00;101536.69;5162406;28;20104;-73
2023/04/17 04:08:01;;;;;;;15.13;8.30;;;;;;;8.02;100.00;101535.00;5162625;28;20473;-74
2023/04/17 04:10:31;;;;;;;17.77;8.63;;;;;;;8.01;100.00;101543.69;5161419;28;20026;-73
2023/04/17 04:13:02;;;;;;;16.15;7.85;;;;;;;7.93;100.00;101543.75;5161663;28;20019;-74
2023/04/17 04:15:32;;;;;;;17.40;7.85;;;;;;;7.95;100.00;101552.41;5162900;28;20048;-72
2023/04/17 04:18:03;;;;;;;15.85;7.68;;;;;;;7.91;100.00;101552.44;5144992;28;20109;-72
2023/04/17 04:20:33;;;;;;;19.65;8.43;;;;;;;7.86;100.00;101554.22;5160534;28;20035;-72
2023/04/17 04:23:03;;;;;;;15.70;8.55;;;;;;;7.77;100.00;101554.28;5162228;28;20034;-73
2023/04/17 04:25:35;;;;;;;13.52;7.90;;;;;;;7.91;100.00;101558.50;5161299;28;20022;-73
2023/04/17 04:28:05;;;;;;;15.00;7.97;;;;;;;7.80;100.00;101569.88;5161208;28;20164;-72
2023/04/17 04:30:37;;;;;;;15.23;7.93;;;;;;;7.77;100.00;101557.78;5163536;28;20113;-71
2023/04/17 04:33:07;;;;;;;18.35;8.30;;;;;;;7.76;100.00;101566.47;5145237;28;20154;-73
2023/04/17 04:35:38;;;;;;;17.33;8.60;;;;;;;7.81;100.00;101563.78;5160690;28;20272;-73
2023/04/17 04:38:12;;;;;;;13.57;7.88;;;;;;;7.75;100.00;101567.34;5143993;28;20032;-72
2023/04/17 04:40:48;;;;;;;15.85;8.07;;;;;;;7.79;100.00;101573.34;5162136;28;20133;-73
2023/04/17 04:43:19;;;;;;;14.75;8.23;;;;;;;7.72;100.00;101566.50;5161471;28;20037;-74
2023/04/17 04:45:49;;;;;;;13.60;8.02;;;;;;;7.66;100.00;101570.00;5160014;28;20026;-70
2023/04/17 04:48:20;;;;;;;15.40;8.27;;;;;;;7.77;100.00;101569.91;5160925;28;20443;-72
2023/04/17 04:50:50;;;;;;;15.55;8.00;;;;;;;7.70;100.00;101571.69;5160893;28;20046;-70
2023/04/17 04:53:20;;;;;;;15.73;8.20;;;;;;;7.73;100.00;101578.63;5160297;28;20030;-72
2023/04/17 04:55:51;;;;;;;15.18;8.32;;;;;;;7.72;100.00;101576.91;5145292;28;20045;-72
2023/04/17 04:58:21;;;;;;;13.65;7.60;;;;;;;7.85;100.00;101571.56;5141405;28;20442;-71
2023/04/17 05:00:51;;;;;;;15.55;7.78;;;;;;;7.90;100.00;101571.53;5162292;28;20026;-72
2023/04/17 05:03:22;;;;;;;13.18;7.55;;;;;;;8.16;100.00;101575.63;5146270;28;20027;-71
2023/04/17 05:05:52;;;;;;;16.80;8.13;;;;;;;8.07;100.00;101578.28;5144252;28;20160;-73
2023/04/17 05:08:23;;;;;;;15.68;7.88;;;;;;;8.14;100.00;101579.09;5164388;28;20529;-71
2023/04/17 05:10:53;;;;;;;15.27;7.95;;;;;;;8.17;100.00;101582.56;5168295;28;20030;-74
2023/04/17 05:13:23;;;;;;;13.88;7.57;;;;;;;8.22;100.00;101587.75;5140758;28;20026;-73
2023/04/17 05:15:54;;;;;;;14.95;7.63;;;;;;;8.12;100.00;101589.56;5161696;28;20058;-74
2023/04/17 05:18:24;;;;;;;14.63;7.38;;;;;;;8.23;100.00;101585.13;5164695;28;20030;-72
2023/04/17 05:20:54;;;;;;;14.38;7.55;;;;;;;8.24;100.00;101597.25;5166034;28;20030;-72
2023/04/17 05:23:27;;;;;;;14.90;7.10;;;;;;;8.14;100.00;101587.78;5143727;28;20109;-72
2023/04/17 05:25:57;;;;;;;12.85;7.57;;;;;;;8.21;100.00;101594.69;5160534;28;20026;-74
2023/04/17 05:28:28;;;;;;;13.48;7.13;;;;;;;8.28;100.00;101598.09;5164040;28;20045;-72
2023/04/17 05:30:58;;;;;;;16.15;8.10;;;;;;;8.21;100.00;101605.09;5145922;28;20025;-72
2023/04/17 05:33:29;;;;;;;15.20;7.80;;;;;;;8.09;100.00;101593.91;5145983;28;20408;-72
2023/04/17 05:35:59;;;;;;;12.65;6.93;;;;;;;8.39;100.00;101604.06;5160171;28;20030;-72
2023/04/17 05:38:30;;;;;;;16.30;8.15;;;;;;;8.27;100.00;101610.28;5144381;28;20554;-72
2023/04/17 05:41:00;;;;;;;16.90;7.88;;;;;;;8.31;100.00;101605.88;5159951;28;20399;-74
2023/04/17 05:43:31;;;;;;;13.10;7.50;;;;;;;8.21;100.00;101610.31;5146171;28;20129;-70
2023/04/17 05:46:01;;;;;;;14.13;7.35;;;;;;;8.23;100.00;101612.91;5165733;28;20050;-73
2023/04/17 05:48:32;;;;;;;14.50;7.53;;;;;;;8.26;100.00;101613.75;5147262;28;20029;-72
2023/04/17 05:51:02;;;;;;;15.23;8.45;;;;;;;8.21;100.00;101610.31;5162041;28;20022;-73
2023/04/17 05:53:33;;;;;;;16.35;8.07;;;;;;;8.19;100.00;101614.69;5141864;28;20488;-72
2023/04/17 05:56:03;;;;;;;21.05;7.85;;;;;;;8.38;100.00;101613.63;5163587;28;20033;-73
2023/04/17 05:58:34;;;;;;;13.57;7.95;;;;;;;8.47;100.00;101618.75;5161356;28;20431;-72
2023/04/17 06:01:05;;;;;;;17.88;8.90;;;;;;;8.45;100.00;101622.22;5144124;28;20046;-74
2023/04/17 06:03:36;;;;;;;15.35;7.88;;;;;;;8.63;100.00;101617.72;5161555;28;20129;-73
2023/04/17 06:06:06;;;;;;;16.05;8.00;;;;;;;8.62;100.00;101620.31;5160608;28;20486;-72
2023/04/17 06:08:37;;;;;;;16.15;7.78;;;;;;;8.64;100.00;101622.03;5140613;28;20128;-75
2023/04/17 06:11:07;;;;;;;14.57;8.20;;;;;;;8.81;100.00;101620.09;5162322;28;20033;-73
2023/04/17 06:13:37;;;;;;;13.27;7.70;;;;;;;8.99;100.00;101619.88;5162750;28;20035;-74
2023/04/17 06:16:07;;;;;;;16.88;7.63;;;;;;;9.01;99.84;101620.72;5161183;28;20037;-71
2023/04/17 06:18:38;;;;;;;14.02;8.05;;;;;;;9.13;99.70;101623.19;5161129;28;20061;-74
2023/04/17 06:21:09;;;;;;;14.57;8.23;;;;;;;9.08;100.00;101624.13;5161575;28;20030;-72
2023/04/17 06:23:39;;;;;;;17.70;8.23;;;;;;;9.13;100.00;101621.41;5163598;28;20068;-72
2023/04/17 06:26:11;;;;;;;13.98;7.90;;;;;;;9.25;100.00;101628.22;5142294;28;20033;-75
2023/04/17 06:28:41;;;;;;;19.23;8.15;;;;;;;9.54;99.41;101626.06;5143396;28;20400;-72
2023/04/17 06:31:11;;;;;;;19.75;8.45;;;;;;;9.52;98.44;101628.69;5161561;28;20122;-72
2023/04/17 06:33:42;;;;;;;13.88;7.22;;;;;;;9.71;95.89;101637.13;5162039;28;20040;-72
2023/04/17 06:36:12;;;;;;;15.77;7.97;;;;;;;9.49;99.06;101638.31;5160932;28;20034;-73
2023/04/17 06:38:43;;;;;;;14.25;8.20;;;;;;;9.65;97.23;101634.59;5160540;28;20030;-72
2023/04/17 06:41:13;;;;;;;16.33;7.32;;;;;;;10.56;92.41;101632.22;5143891;28;20030;-72
2023/04/17 06:43:43;;;;;;;14.95;7.72;;;;;;;10.82;91.47;101622.97;5162164;28;20109;-74
2023/04/17 06:46:14;;;;;;;14.88;7.40;;;;;;;10.84;88.97;101631.66;5144086;28;20121;-75
2023/04/17 06:48:44;;;;;;;16.17;7.75;;;;;;;11.28;89.08;101635.06;5142669;28;20025;-74
2023/04/17 06:51:16;;;;;;;14.15;7.35;;;;;;;12.52;85.46;101625.09;5161886;28;20027;-72
2023/04/17 06:53:47;;;;;;;12.75;6.78;;;;;;;13.54;80.38;101626.47;5139640;28;20549;-73
2023/04/17 06:56:18;;;;;;;14.82;7.20;;;;;;;13.71;78.48;101623.31;5161964;28;20034;-72
2023/04/17 06:58:48;;;;;;;12.05;6.65;;;;;;;15.10;73.92;101624.56;5146265;28;20041;-70
2023/04/17 07:01:19;;;;;;;11.90;6.57;;;;;;;15.23;71.24;101628.47;5169733;28;20029;-75
2023/04/17 07:03:49;;;;;;;13.38;7.30;;;;;;;13.55;76.03;101632.59;5149433;28;20476;-72
2023/04/17 07:06:20;;;;;;;13.00;7.28;;;;;;;13.57;77.75;101636.03;5165780;28;20365;-73
2023/04/17 07:08:50;;;;;;;11.40;6.75;;;;;;;14.28;74.21;101638.06;5147710;28;20054;-72
2023/04/17 07:11:20;;;;;;;13.50;6.57;;;;;;;14.45;72.69;101632.25;5169709;28;20488;-75
2023/04/17 07:13:51;;;;;;;11.05;6.80;;;;;;;13.25;74.84;101636.97;5165989;28;20030;-74
2023/04/17 07:18:57;;;;;;;;;;;;;;;12.94;78.92;101648.41;5188318;23;20050;-73
2023/04/17 07:21:27;;;;;;;14.17;7.13;;;;;;;12.70;78.52;101642.94;5167624;28;19918;-73
2023/04/17 07:23:58;;;;;;;12.10;6.57;;;;;;;12.10;80.81;101655.03;5167684;28;20361;-73
2023/04/17 07:26:28;;;;;;;13.40;7.22;;;;;;;11.97;81.79;101649.19;5168180;28;20026;-73
2023/04/17 07:28:58;;;;;;;12.82;6.97;;;;;;;12.49;78.88;101651.38;5157958;28;20076;-73
2023/04/17 07:31:28;;;;;;;12.15;6.55;;;;;;;12.81;78.00;101639.13;5154885;28;20122;-73
2023/04/17 07:33:59;;;;;;;12.35;7.03;;;;;;;13.21;76.79;101642.38;5137211;28;20671;-73
2023/04/17 07:36:29;;;;;;;12.45;6.60;;;;;;;14.55;72.91;101636.25;5160680;28;20459;-73
2023/04/17 07:39:00;;;;;;;12.18;6.57;;;;;;;16.21;70.28;101630.66;5157334;28;20068;-72
2023/04/17 07:41:30;;;;;;;9.02;5.80;;;;;;;17.18;64.14;101633.41;5164574;28;20546;-73
2023/04/17 07:44:02;;;;;;;10.45;5.88;;;;;;;17.12;66.82;101631.06;5143962;28;20034;-72
2023/04/17 07:46:32;;;;;;;10.82;5.93;;;;;;;17.95;62.83;101623.50;5163111;28;20551;-72
2023/04/17 07:49:03;;;;;;;8.32;5.35;;;;;;;19.10;62.81;101622.75;5156612;28;20030;-74
2023/04/17 07:51:34;;;;;;;11.07;5.63;;;;;;;18.26;61.29;101618.41;5156244;28;20509;-73
2023/04/17 07:54:04;;;;;;;8.65;5.82;;;;;;;21.08;57.36;101614.63;5154221;28;20057;-73
2023/04/17 07:56:35;;;;;;;9.48;5.55;;;;;;;20.79;54.15;101618.22;5159214;28;20036;-73
2023/04/17 07:59:05;;;;;;;7.25;4.93;;;;;;;20.62;54.22;101612.19;5157858;28;20038;-74
2023/04/17 08:01:36;;;;;;;12.50;5.77;;;;;;;20.23;57.40;101626.97;5159965;28;20049;-73
2023/04/17 08:04:06;;;;;;;10.07;5.90;;;;;;;19.30;59.46;101619.91;5161016;28;20363;-74
2023/04/17 08:06:36;;;;;;;9.57;5.40;;;;;;;19.80;57.38;101630.38;5158752;28;20065;-73
2023/04/17 08:09:07;;;;;;;10.40;6.30;;;;;;;19.40;58.46;101631.75;5153540;28;20153;-73
2023/04/17 08:11:37;;;;;;;10.43;5.85;;;;;;;18.11;61.15;101639.47;5161097;28;20109;-72
2023/04/17 08:14:10;;;;;;;10.40;5.97;;;;;;;17.20;64.87;101645.63;5159134;28;20026;-73
2023/04/17 08:16:40;;;;;;;9.50;5.97;;;;;;;17.03;64.96;101637.59;5158464;28;20041;-73
2023/04/17 08:19:10;;;;;;;12.60;5.97;;;;;;;16.91;66.23;101646.06;5157608;28;20496;-73
2023/04/17 08:21:41;;;;;;;11.85;6.57;;;;;;;15.99;68.40;101658.84;5163434;28;20270;-73
2023/04/17 08:24:11;;;;;;;10.00;6.22;;;;;;;15.08;70.36;101654.50;5155483;28;20037;-73
2023/04/17 08:26:42;;;;;;;12.27;6.95;;;;;;;14.98;70.70;101648.72;5160233;28;20034;-73
2023/04/17 08:29:12;;;;;;;11.75;6.47;;;;;;;14.84;70.56;101656.25;5155956;28;20480;-73
2023/04/17 08:31:42;;;;;;;12.30;6.68;;;;;;;14.82;72.35;101647.53;5164106;28;20084;-73
2023/04/17 08:34:13;;;;;;;11.40;7.10;;;;;;;14.97;72.18;101652.25;5158878;28;20031;-73
2023/04/17 08:36:45;;;;;;;14.35;6.55;;;;;;;14.99;71.38;101653.06;5165202;28;20042;-73
2023/04/17 08:39:15;;;;;;;15.90;6.90;;;;;;;15.10;71.94;101657.94;5152642;28;20023;-72
2023/04/17 08:41:55;;;;;;;12.07;6.93;;;;;;;14.99;72.79;101662.75;5156852;28;20517;-73
2023/04/17 08:44:25;;;;;;;12.50;6.47;;;;;;;15.56;69.62;101663.22;5156851;28;20027;-72
2023/04/17 08:46:57;;;;;;;13.10;7.13;;;;;;;15.89;69.86;101669.81;5163430;28;20018;-73
2023/04/17 08:49:28;;;;;;;11.02;6.15;;;;;;;16.96;64.73;101652.00;5162732;28;20026;-73
2023/04/17 08:52:02;;;;;;;12.18;6.65;;;;;;;17.40;63.53;101658.81;5159005;28;20033;-73
2023/04/17 08:54:34;;;;;;;10.43;6.57;;;;;;;18.30;61.69;101653.53;5157509;28;20101;-73
2023/04/17 08:57:05;;;;;;;15.13;6.25;;;;;;;19.15;59.49;101654.31;5144497;28;20033;-73
2023/04/17 08:59:35;;;;;;;12.60;6.03;;;;;;;19.74;58.10;101649.28;5158671;28;20048;-73
2023/04/17 09:02:07;;;;;;;10.20;6.38;;;;;;;20.89;56.48;101645.13;5155878;28;20231;-73
2023/04/17 09:04:46;;;;;;;10.65;5.70;;;;;;;20.06;55.43;101654.53;5162276;28;20538;-73
2023/04/17 09:07:17;;;;;;;9.27;5.30;;;;;;;20.54;55.39;101648.13;5156595;28;20069;-73
2023/04/17 09:09:52;;;;;;;13.75;5.88;;;;;;;19.78;56.80;101654.34;5155450;28;20470;-73
2023/04/17 09:12:24;;;;;;;11.05;6.05;;;;;;;18.40;61.75;101660.09;5156172;28;20061;-72
2023/04/17 09:14:54;;;;;;;11.55;6.22;;;;;;;18.12;60.18;101657.06;5163045;28;20453;-72
2023/04/17 09:17:33;;;;;;;10.40;6.10;;;;;;;17.66;62.48;101668.16;5155841;28;20109;-73
2023/04/17 09:20:08;;;;;;;10.45;5.70;;;;;;;18.91;57.71;101664.44;5155707;28;20031;-73
2023/04/17 09:22:39;;;;;;;8.45;4.88;;;;;;;18.79;53.01;101657.13;5156677;28;20076;-73
2023/04/17 09:25:21;;;;;;;10.05;5.65;;;;;;;18.62;57.75;101658.94;5154365;28;20034;-73
2023/04/17 09:27:52;;;;;;;9.27;5.25;;;;;;;18.79;55.08;101665.06;5134002;28;20141;-72
2023/04/17 09:30:23;;;;;;;12.52;5.72;;;;;;;19.26;56.16;101659.97;5155917;28;20117;-71
2023/04/17 09:33:04;;;;;;;9.18;5.22;;;;;;;17.95;56.61;101657.03;5143461;28;20026;-71
2023/04/17 09:35:39;;;;;;;10.52;5.20;;;;;;;17.11;55.18;101666.31;5160927;28;20084;-72
2023/04/17 09:38:10;;;;;;;10.68;5.03;;;;;;;16.94;54.24;101663.56;5155502;28;20041;-73
2023/04/17 09:40:41;;;;;;;8.27;4.40;;;;;;;16.70;54.67;101677.84;5142042;28;20042;-72
2023/04/17 09:43:11;;;;;;;10.30;4.90;;;;;;;16.34;54.24;101673.19;5158342;28;20030;-71
2023/04/17 09:45:43;;;;;;;7.53;4.30;;;;;;;16.53;56.25;101667.13;5160117;28;20197;-73
2023/04/17 09:48:14;;;;;;;8.80;4.50;;;;;;;16.77;55.91;101666.09;5151465;28;20305;-73
2023/04/17 09:50:45;;;;;;;10.48;4.75;;;;;;;15.78;55.54;101675.53;5159330;28;20021;-72
2023/04/17 09:53:17;;;;;;;8.80;4.63;;;;;;;14.99;58.11;101671.50;5152739;28;20481;-72
2023/04/17 09:55:48;;;;;;;11.57;4.97;;;;;;;15.56;57.42;101673.78;5155359;28;20029;-72
2023/04/17 09:58:19;;;;;;;11.60;4.88;;;;;;;14.75;56.85;101675.91;5158210;28;20043;-72
2023/04/17 10:00:50;;;;;;;8.48;4.82;;;;;;;14.75;57.71;101675.91;5144134;28;20040;-71
2023/04/17 10:03:20;;;;;;;9.18;4.95;;;;;;;14.84;57.61;101674.66;5157199;28;20031;-73
2023/04/17 10:05:51;;;;;;;9.23;5.30;;;;;;;15.39;57.94;101670.91;5157819;28;20116;-72
2023/04/17 10:08:21;;;;;;;9.75;5.32;;;;;;;15.36;58.82;101677.16;5149804;28;20034;-72
2023/04/17 10:10:52;;;;;;;9.77;5.25;;;;;;;14.86;56.14;101672.00;5159714;28;20399;-72
2023/04/17 10:13:26;;;;;;;10.73;4.55;;;;;;;15.66;56.15;101668.06;5150898;28;20054;-71
2023/04/17 10:15:57;;;;;;;10.90;5.43;;;;;;;14.71;58.16;101669.91;5157696;28;20049;-72
2023/04/17 10:18:27;;;;;;;9.63;4.90;;;;;;;15.30;60.38;101656.31;5154532;28;20477;-72
2023/04/17 10:21:20;;;;;;;13.82;5.18;;;;;;;15.88;58.61;101666.31;5158337;28;20045;-73
2023/04/17 10:23:52;;;;;;;10.15;5.03;;;;;;;15.45;60.05;101666.28;5156042;28;20466;-72
2023/04/17 10:26:24;;;;;;;10.20;5.70;;;;;;;14.81;60.67;101667.78;5156868;28;20532;-72
2023/04/17 10:28:56;;;;;;;10.68;4.93;;;;;;;15.62;62.06;101655.06;5158797;28;20033;-72
2023/04/17 10:32:04;;;;;;;10.88;4.82;;;;;;;15.51;60.43;101660.75;5156860;28;20261;-72
2023/04/17 10:34:36;;;;;;;9.65;5.10;;;;;;;16.15;60.27;101659.94;5159613;28;20488;-73
2023/04/17 10:37:07;;;;;;;9.80;5.50;;;;;;;15.44;62.23;101668.97;5139113;28;20034;-72
2023/04/17 10:39:59;;;;;;;9.05;5.10;;;;;;;15.54;59.33;101671.19;5158898;28;20022;-72
2023/04/17 10:42:31;;;;;;;7.53;4.43;;;;;;;15.96;56.02;101661.59;5159828;28;20085;-73
2023/04/17 10:45:04;;;;;;;8.95;4.20;;;;;;;15.87;55.09;101659.31;5154367;28;20041;-73
2023/04/17 10:47:35;;;;;;;7.28;4.20;;;;;;;15.91;55.92;101653.00;5157072;28;20045;-72
2023/04/17 10:50:08;;;;;;;11.13;4.10;;;;;;;16.19;54.96;101648.31;5154695;28;20027;-73
2023/04/17 10:52:40;;;;;;;9.00;4.32;;;;;;;16.00;57.10;101650.00;5161738;28;20060;-73
2023/04/17 10:55:15;;;;;;;8.02;4.28;;;;;;;15.71;55.59;101652.94;5154598;28;20022;-72
2023/04/17 10:57:59;;;;;;;7.07;3.88;;;;;;;15.36;55.17;101656.06;5160244;28;20028;-72
2023/04/17 11:00:37;;;;;;;8.90;4.10;;;;;;;15.51;54.87;101650.22;5157050;28;20031;-72
2023/04/17 11:03:07;;;;;;;9.88;4.25;;;;;;;15.64;55.78;101647.97;5160132;28;20042;-73
2023/04/17 11:05:46;;;;;;;9.27;4.18;;;;;;;15.81;55.75;101656.94;5158355;28;20040;-71
2023/04/17 11:08:16;;;;;;;8.23;4.43;;;;;;;15.95;55.51;101641.44;5151408;28;20031;-72
2023/04/17 11:10:52;;;;;;;6.93;3.80;;;;;;;15.74;54.17;101639.63;5161783;28;20033;-72
2023/04/17 11:13:22;;;;;;;;;;;;;;;15.83;53.96;101647.19;5153497;28;20078;-72
2023/04/17 11:15:53;;;;;;;6.85;3.85;;;;;;;15.09;52.34;101651.81;5139548;28;20338;-72
2023/04/17 11:18:25;;;;;;;8.35;4.03;;;;;;;15.33;54.31;101648.28;5156384;28;20062;-71
2023/04/17 11:20:56;;;;;;;8.15;3.90;;;;;;;15.09;54.18;101640.41;5150796;28;20559;-71
2023/04/17 11:23:32;;;;;;;7.93;4.10;;;;;;;15.10;52.90;101645.63;5161886;28;20155;-72
2023/04/17 11:26:03;;;;;;;9.10;3.97;;;;;;;14.91;53.47;101652.50;5159430;28;20026;-73
2023/04/17 11:28:35;;;;;;;8.50;4.22;;;;;;;15.34;53.30;101636.84;5144895;28;20022;-72
2023/04/17 11:31:05;;;;;;;6.72;3.47;;;;;;;15.21;54.63;101637.34;5158552;28;20060;-72
2023/04/17 11:33:36;;;;;;;9.23;3.28;;;;;;;14.84;54.19;101640.44;5159794;28;20023;-72
2023/04/17 11:36:06;;;;;;;5.28;3.33;;;;;;;15.21;54.13;101643.44;5157217;28;20410;-72
2023/04/17 11:38:45;;;;;;;8.25;3.50;;;;;;;15.31;53.18;101636.97;5158973;28;20109;-72
2023/04/17 11:41:16;;;;;;;6.75;3.78;;;;;;;15.26;55.49;101648.53;5158551;28;20476;-73